Airfield :
LOGIN :

Register | Disclaimer

   EN    FR    IT 

 










Legend :    VFR   Marginal VFR   IFR   Intensive IFR   Very Intensive IFR
Visi :
Ceiling :
>= 8 km
>= 3000ft
5 to 8 km
1000 to 3000 ft
1500m to 5 km
500 to 1000 ft
800 to 1500m
200 to 500 ft
< 800m
< 200 ft
Symbols :   Thunderstorms  Fog  Heavy snow  Heavy precipitations  Wind > 20 kt
SIGMETs :     Misc.  Thunderstorms  Icing  Turbulence  Mountain Waves  Volcanic Ashes







- Airport Elevation : -11 ft
- IATA code : AMS


EHAM - Amsterdam Schiphol

CURRENT METAR :
  • 141825Z 20007KT 9999 VCSH FEW011 FEW018CB 03/02 Q0988 TEMPO 7000 -SHRA

EXPIRED METARs :
  • 141755Z 19010KT 9999 -SHRA FEW012 FEW018CB 04/02 Q0988 RESHRA TEMPO 7000
  • 141725Z 20011KT 170V230 9999 -SHRA FEW015 FEW018CB SCT025 04/02 Q0989 TEMPO 23010G20KT 7000 SHRA
  • 141655Z 20011KT 9999 -SHRA FEW020CB SCT025 04/02 Q0988 TEMPO 23010G20KT 7000 SHRA
  • 141625Z 20011KT 9999 VCSH FEW020CB 03/01 Q0989 TEMPO 23010G20KT 7000 SHRA
  • 141555Z 20009KT 9999 -SHRA FEW020CB SCT025 04/02 Q0989 NOSIG

TAF TAF EHAM
Valid from the 14 at 18:00 until the 16 at 00:00 UTC


141723Z 1418/1524 19009KT 9999 SCT020
PROB30
TEMPO 1418/1422 5000 -SHRAGSSN SCT018CB BKN020
BECMG 1422/1501 6000
BECMG 1503/1506 BKN008
PROB30 1503/1513 3000 BR BKN004
BECMG 1512/1515 BKN012
BECMG 1516/1519 31007KT 9999 SCT020
TEMPO 1519/1524 5000 SHRA SHRAGS SCT018CB BKN030
No reported NOTAMs for that airfield.



MET'MAP, your aeronautical weather chart ! - Copyright ORBIFLY December 2007 - Disclaimer

ORBIFLY MET'MAP TEAM :

Programming & Development : Alexandra Zaïnal
Concept & Development : Baudouin d'Aumeries
Co-Development & Prog : Marc-Olivier Méhu
Technical & hardware support : Manuel Goepfert

Contact : metmap@orbifly.com




SOURCES & CREDITS :

   NOAA